Time;durP1;ratioP1;P1;durP2;ratioP2;P2;SDS_P1;SDS_P2;PMS_P1;PMS_P2;Temp;Humidity;BMP_temperature;BMP_pressure;BME280_temperature;BME280_humidity;BME280_pressure;Samples;Min_cycle;Max_cycle;Signal;HPM_P1;HPM_P2
2022/08/10 00:00:30;;;;;;;2.53;1.10;;;22.20;55.70;;;;;;5113423;28;20084;-72
2022/08/10 00:02:58;;;;;;;1.73;1.40;;;22.20;54.90;;;;;;5116710;28;20052;-72
2022/08/10 00:05:25;;;;;;;1.38;1.20;;;22.20;55.10;;;;;;5117459;28;20050;-72
2022/08/10 00:07:51;;;;;;;3.25;1.50;;;22.10;55.20;;;;;;5117519;28;20032;-72
2022/08/10 00:10:19;;;;;;;2.15;1.40;;;22.10;55.40;;;;;;5117461;28;20020;-72
2022/08/10 00:12:45;;;;;;;3.65;1.48;;;22.10;55.50;;;;;;5117481;28;20032;-72
2022/08/10 00:15:13;;;;;;;3.65;1.42;;;22.10;55.50;;;;;;5117392;28;20469;-72
2022/08/10 00:17:39;;;;;;;4.32;1.33;;;22.00;55.60;;;;;;5117343;28;20123;-72
2022/08/10 00:20:05;;;;;;;3.70;1.40;;;22.00;55.80;;;;;;5117276;28;20425;-72
2022/08/10 00:22:31;;;;;;;1.70;1.40;;;22.00;55.60;;;;;;5117293;28;20043;-73
2022/08/10 00:24:57;;;;;;;3.50;1.45;;;22.00;55.60;;;;;;5117201;28;20391;-72
2022/08/10 00:27:25;;;;;;;2.50;1.30;;;21.90;55.90;;;;;;5117140;28;20036;-72
2022/08/10 00:29:50;;;;;;;1.88;1.50;;;22.00;56.00;;;;;;5117102;28;20081;-73
2022/08/10 00:32:16;;;;;;;2.25;1.60;;;21.90;56.00;;;;;;5117038;28;20036;-72
2022/08/10 00:34:42;;;;;;;2.00;1.50;;;21.90;56.10;;;;;;5116996;28;20028;-72
2022/08/10 00:37:08;;;;;;;1.63;1.42;;;21.90;56.20;;;;;;5116956;28;20040;-72
2022/08/10 00:39:33;;;;;;;2.38;1.50;;;21.90;56.20;;;;;;5116927;28;20080;-72
2022/08/10 00:41:59;;;;;;;3.22;1.42;;;21.80;56.50;;;;;;5116770;28;20028;-73
2022/08/10 00:44:24;;;;;;;2.67;1.42;;;21.80;56.60;;;;;;5116810;28;20039;-72
2022/08/10 00:46:50;;;;;;;2.58;1.75;;;21.70;56.70;;;;;;5116776;28;20028;-73
2022/08/10 00:49:16;;;;;;;4.35;1.60;;;21.60;56.90;;;;;;5116700;28;20039;-73
2022/08/10 00:51:41;;;;;;;2.83;1.80;;;21.50;57.30;;;;;;5116685;28;20028;-72
2022/08/10 00:54:08;;;;;;;2.97;1.90;;;21.40;57.50;;;;;;5115656;28;20502;-72
2022/08/10 00:56:34;;;;;;;3.55;1.67;;;21.50;57.70;;;;;;5116603;28;20024;-72
2022/08/10 00:59:00;;;;;;;2.65;1.60;;;21.50;58.10;;;;;;5116520;28;20495;-72
2022/08/10 01:01:26;;;;;;;2.03;1.65;;;21.40;58.00;;;;;;5116427;28;20041;-72
2022/08/10 01:03:51;;;;;;;1.95;1.60;;;21.40;58.20;;;;;;5116129;28;20051;-72
2022/08/10 01:06:43;;;;;;;2.10;1.50;;;21.40;58.30;;;;;;5115203;28;20016;-72
2022/08/10 01:09:27;;;;;;;3.67;1.63;;;21.30;57.90;;;;;;5106629;28;20399;-72
2022/08/10 01:12:09;;;;;;;3.53;1.77;;;21.30;58.20;;;;;;5115032;28;20016;-72
2022/08/10 01:14:49;;;;;;;2.45;1.75;;;21.20;58.50;;;;;;5115230;28;20027;-72
2022/08/10 01:17:35;;;;;;;3.97;1.80;;;21.20;58.70;;;;;;5115197;28;20107;-72
2022/08/10 01:20:26;;;;;;;1.85;1.50;;;21.20;58.70;;;;;;5115057;28;20024;-72
2022/08/10 01:23:15;;;;;;;2.40;1.60;;;21.20;58.80;;;;;;5114860;28;20032;-72
2022/08/10 01:26:00;;;;;;;3.00;1.60;;;21.20;58.80;;;;;;5115098;28;20020;-73
2022/08/10 01:28:48;;;;;;;3.20;1.90;;;21.20;59.00;;;;;;5114805;28;20027;-72
2022/08/10 01:31:18;;;;;;;2.83;1.80;;;21.20;59.00;;;;;;5114955;28;20028;-72
2022/08/10 01:33:52;;;;;;;3.63;1.73;;;21.20;58.90;;;;;;5114811;28;20026;-72
2022/08/10 01:36:23;;;;;;;3.63;1.70;;;21.10;58.90;;;;;;5114792;28;20077;-72
2022/08/10 01:38:51;;;;;;;2.97;1.87;;;21.20;59.00;;;;;;5114749;28;20016;-73
2022/08/10 01:41:35;;;;;;;2.92;1.75;;;21.20;59.10;;;;;;5114648;28;20028;-73
2022/08/10 01:44:07;;;;;;;2.10;1.60;;;21.20;59.20;;;;;;5114636;28;20016;-73
2022/08/10 01:46:35;;;;;;;2.10;1.60;;;21.10;59.50;;;;;;5114827;28;20044;-72
2022/08/10 01:49:05;;;;;;;3.53;2.13;;;21.10;59.30;;;;;;5114502;28;20045;-72
2022/08/10 01:51:51;;;;;;;2.38;1.70;;;21.10;59.40;;;;;;5114552;28;20050;-73
2022/08/10 01:54:23;;;;;;;6.53;2.03;;;21.00;59.50;;;;;;5114495;28;20028;-72
2022/08/10 01:56:52;;;;;;;3.33;1.85;;;20.90;60.00;;;;;;5114432;28;20059;-72
2022/08/10 01:59:31;;;;;;;3.78;1.95;;;20.90;60.10;;;;;;5114330;28;20016;-72
2022/08/10 02:02:02;;;;;;;3.33;1.88;;;20.90;60.30;;;;;;5114442;28;20024;-72
2022/08/10 02:04:31;;;;;;;3.42;1.90;;;20.90;60.20;;;;;;5041520;28;2064967;-73
2022/08/10 02:07:00;;;;;;;2.30;1.63;;;20.90;60.20;;;;;;5115200;28;20058;-73
2022/08/10 02:09:30;;;;;;;2.65;1.90;;;20.90;60.40;;;;;;5115180;28;20028;-72
2022/08/10 02:12:07;;;;;;;2.30;1.75;;;20.90;60.20;;;;;;5114249;28;20020;-72
2022/08/10 02:14:37;;;;;;;5.97;2.22;;;20.90;60.00;;;;;;5115227;28;20017;-72
2022/08/10 02:17:09;;;;;;;2.65;1.90;;;20.90;60.10;;;;;;5115048;28;20020;-72
2022/08/10 02:19:39;;;;;;;6.03;2.08;;;20.80;60.30;;;;;;5114970;28;20080;-72
2022/08/10 02:22:07;;;;;;;3.92;2.22;;;20.70;60.30;;;;;;5114900;28;20083;-72
2022/08/10 02:24:33;;;;;;;3.15;2.10;;;20.60;60.60;;;;;;5114084;28;20021;-72
2022/08/10 02:27:00;;;;;;;4.63;2.10;;;20.70;60.80;;;;;;5114836;28;20028;-72
2022/08/10 02:29:27;;;;;;;5.40;2.05;;;20.70;60.60;;;;;;5114694;28;20096;-72
2022/08/10 02:31:54;;;;;;;3.10;2.10;;;20.70;60.50;;;;;;5114723;28;20024;-72
2022/08/10 02:34:21;;;;;;;5.28;1.95;;;20.70;60.80;;;;;;5114716;28;20483;-72
2022/08/10 02:36:52;;;;;;;2.80;2.13;;;20.70;60.70;;;;;;5114639;28;20030;-72
2022/08/10 02:39:22;;;;;;;4.45;2.25;;;20.60;60.90;;;;;;5114782;28;20031;-73
2022/08/10 02:42:12;;;;;;;3.95;2.05;;;20.50;61.00;;;;;;5114450;28;20085;-73
2022/08/10 02:45:03;;;;;;;3.15;2.20;;;20.60;61.00;;;;;;5114672;28;20024;-73
2022/08/10 02:47:35;;;;;;;2.85;2.25;;;20.50;61.10;;;;;;5114458;28;20032;-73
2022/08/10 02:50:18;;;;;;;3.10;2.00;;;20.50;61.40;;;;;;5114447;28;20023;-73
2022/08/10 02:52:47;;;;;;;3.63;2.10;;;20.50;61.30;;;;;;5114520;28;20257;-73
2022/08/10 02:55:25;;;;;;;2.70;2.13;;;20.40;61.30;;;;;;5114290;28;20028;-73
2022/08/10 02:57:54;;;;;;;4.10;2.60;;;20.40;61.60;;;;;;5114322;28;20027;-73
2022/08/10 03:00:22;;;;;;;5.20;2.42;;;20.40;61.70;;;;;;5114205;28;20020;-73
2022/08/10 03:02:49;;;;;;;3.00;2.20;;;20.40;61.60;;;;;;5114082;28;20028;-73
2022/08/10 03:05:16;;;;;;;3.10;2.17;;;20.40;61.60;;;;;;5113912;28;20051;-73
2022/08/10 03:07:57;;;;;;;3.05;2.35;;;20.30;61.70;;;;;;5114096;28;20536;-73
2022/08/10 03:10:27;;;;;;;3.70;2.40;;;20.30;62.10;;;;;;5114062;28;20523;-73
2022/08/10 03:12:57;;;;;;;4.78;2.60;;;20.30;62.10;;;;;;5113304;28;20031;-73
2022/08/10 03:15:24;;;;;;;3.75;2.28;;;20.20;62.00;;;;;;5114000;28;20046;-73
2022/08/10 03:17:52;;;;;;;2.53;2.05;;;20.10;62.20;;;;;;5113971;28;20075;-73
2022/08/10 03:20:20;;;;;;;3.40;2.55;;;20.10;62.10;;;;;;5114034;28;20028;-73
2022/08/10 03:22:49;;;;;;;3.45;2.38;;;20.10;62.20;;;;;;5113780;28;20103;-73
2022/08/10 03:25:18;;;;;;;4.63;2.47;;;20.10;62.10;;;;;;5113995;28;20012;-73
2022/08/10 03:27:44;;;;;;;4.13;2.40;;;20.10;62.30;;;;;;5113758;28;20024;-73
2022/08/10 03:30:11;;;;;;;3.28;2.35;;;20.00;62.20;;;;;;5113664;28;20020;-73
2022/08/10 03:32:38;;;;;;;3.55;2.30;;;20.00;62.40;;;;;;5113858;28;20027;-73
2022/08/10 03:35:06;;;;;;;3.67;2.30;;;20.00;62.40;;;;;;5113606;28;20027;-73
2022/08/10 03:37:31;;;;;;;5.32;2.92;;;20.00;62.60;;;;;;5113694;28;20028;-73
2022/08/10 03:39:57;;;;;;;4.07;2.55;;;19.90;62.80;;;;;;5113629;28;20049;-73
2022/08/10 03:42:26;;;;;;;4.30;2.63;;;19.80;63.00;;;;;;5113540;28;20048;-73
2022/08/10 03:44:52;;;;;;;3.72;2.47;;;19.80;63.20;;;;;;5113602;28;20020;-73
2022/08/10 03:47:19;;;;;;;4.80;2.75;;;19.90;63.90;;;;;;5113545;28;20020;-73
2022/08/10 03:49:47;;;;;;;4.18;2.30;;;19.80;63.10;;;;;;5113559;28;20089;-73
2022/08/10 03:52:14;;;;;;;5.10;2.97;;;19.80;63.30;;;;;;5113496;28;20028;-73
2022/08/10 03:54:41;;;;;;;4.28;2.53;;;19.80;63.50;;;;;;5113459;28;20023;-73
2022/08/10 03:57:07;;;;;;;4.90;2.67;;;19.70;63.70;;;;;;5113423;28;20043;-73
2022/08/10 03:59:35;;;;;;;4.78;2.70;;;19.70;63.60;;;;;;5113499;28;20028;-73
2022/08/10 04:02:02;;;;;;;4.63;2.78;;;19.70;63.80;;;;;;5113344;28;20490;-73
2022/08/10 04:04:27;;;;;;;4.85;3.00;;;19.70;63.70;;;;;;5113189;28;20041;-73
2022/08/10 04:06:55;;;;;;;7.00;3.10;;;19.70;63.90;;;;;;5113437;28;20088;-73
2022/08/10 04:09:30;;;;;;;9.32;3.10;;;19.70;63.70;;;;;;5113318;28;20032;-73
2022/08/10 04:11:55;;;;;;;4.97;2.80;;;19.70;63.70;;;;;;5113245;28;20028;-73
2022/08/10 04:14:21;;;;;;;3.90;2.63;;;19.70;63.80;;;;;;5113432;28;20087;-72
2022/08/10 04:16:47;;;;;;;5.55;3.33;;;19.60;64.00;;;;;;5113252;28;20042;-73
2022/08/10 04:19:15;;;;;;;5.53;3.10;;;19.50;64.10;;;;;;5113397;28;20028;-72
2022/08/10 04:21:46;;;;;;;4.60;2.92;;;19.30;64.60;;;;;;5113159;28;20020;-73
2022/08/10 04:24:23;;;;;;;5.43;3.00;;;19.20;65.10;;;;;;5113258;28;20088;-73
2022/08/10 04:26:48;;;;;;;5.03;2.90;;;19.20;65.30;;;;;;5113334;28;20020;-73
2022/08/10 04:29:14;;;;;;;5.53;3.20;;;19.30;65.10;;;;;;5113090;28;20080;-73
2022/08/10 04:31:43;;;;;;;3.90;2.67;;;19.30;65.30;;;;;;5113123;28;20028;-73
2022/08/10 04:34:09;;;;;;;5.40;3.30;;;19.30;65.10;;;;;;5113141;28;20151;-73
2022/08/10 04:36:37;;;;;;;5.25;3.08;;;19.30;64.90;;;;;;5113128;28;20058;-73
2022/08/10 04:39:03;;;;;;;5.97;3.35;;;19.30;65.30;;;;;;5113195;28;20024;-73
2022/08/10 04:41:28;;;;;;;5.22;3.40;;;19.30;65.30;;;;;;5112969;28;20056;-73
2022/08/10 04:43:54;;;;;;;6.35;3.33;;;19.30;65.50;;;;;;5113005;28;20035;-73
2022/08/10 04:46:19;;;;;;;5.10;3.17;;;19.30;65.50;;;;;;5112016;28;20051;-73
2022/08/10 04:48:45;;;;;;;5.75;3.10;;;19.20;65.40;;;;;;5115882;28;20031;-73
2022/08/10 04:51:14;;;;;;;4.78;3.08;;;19.30;65.60;;;;;;5116688;28;20032;-73
2022/08/10 04:53:39;;;;;;;6.00;3.17;;;19.30;65.60;;;;;;5116706;28;20046;-73
2022/08/10 04:56:07;;;;;;;3.90;2.88;;;19.20;65.70;;;;;;5116617;28;20111;-73
2022/08/10 04:58:33;;;;;;;3.88;2.72;;;19.20;66.00;;;;;;5116613;28;20016;-73
2022/08/10 05:00:59;;;;;;;4.00;2.67;;;19.20;66.10;;;;;;5116433;28;20031;-73
2022/08/10 05:03:25;;;;;;;5.07;2.70;;;19.30;66.10;;;;;;5116489;28;20088;-73
2022/08/10 05:05:50;;;;;;;5.13;3.08;;;19.20;66.10;;;;;;5116297;28;20052;-73
2022/08/10 05:08:16;;;;;;;4.57;3.20;;;19.30;66.30;;;;;;5116407;28;20024;-73
2022/08/10 05:10:42;;;;;;;6.72;3.35;;;19.30;66.30;;;;;;5116323;28;20066;-73
2022/08/10 05:13:07;;;;;;;5.60;3.53;;;19.20;66.40;;;;;;5116418;28;20091;-73
2022/08/10 05:15:33;;;;;;;5.38;3.33;;;19.20;66.50;;;;;;5116253;28;20028;-73
2022/08/10 05:17:59;;;;;;;5.15;3.42;;;19.20;66.50;;;;;;5116201;28;20032;-73
2022/08/10 05:20:24;;;;;;;5.00;3.40;;;19.20;66.70;;;;;;5116173;28;20024;-73
2022/08/10 05:22:50;;;;;;;5.68;3.42;;;19.20;66.80;;;;;;5116012;28;20081;-73
2022/08/10 05:25:18;;;;;;;5.05;3.45;;;19.20;66.90;;;;;;5116046;28;20063;-73
2022/08/10 05:27:45;;;;;;;4.85;3.13;;;19.30;66.90;;;;;;5115979;28;20020;-73
2022/08/10 05:30:14;;;;;;;6.05;3.38;;;19.30;67.80;;;;;;5115882;28;20016;-73
2022/08/10 05:32:40;;;;;;;6.00;3.50;;;19.30;67.00;;;;;;5115926;28;20024;-73
2022/08/10 05:35:06;;;;;;;6.95;3.80;;;19.30;67.00;;;;;;5115877;28;20035;-73
2022/08/10 05:37:32;;;;;;;6.38;3.53;;;19.30;66.90;;;;;;5115812;28;20042;-73
2022/08/10 05:39:59;;;;;;;5.88;3.78;;;19.30;67.20;;;;;;5115782;28;20021;-73
2022/08/10 05:42:25;;;;;;;6.32;3.55;;;19.40;67.30;;;;;;5115635;28;20119;-73
2022/08/10 05:44:51;;;;;;;7.03;3.80;;;19.30;67.40;;;;;;5115674;28;20044;-73
2022/08/10 05:47:18;;;;;;;7.20;3.72;;;19.30;67.20;;;;;;5115615;28;20081;-73
2022/08/10 05:49:46;;;;;;;6.07;3.85;;;19.40;67.30;;;;;;5115607;28;20076;-73
2022/08/10 05:52:11;;;;;;;5.85;3.67;;;19.50;67.30;;;;;;5115536;28;20016;-73
2022/08/10 05:54:37;;;;;;;6.18;3.85;;;19.50;67.30;;;;;;5115511;28;20024;-73
2022/08/10 05:57:03;;;;;;;4.90;3.38;;;19.50;67.30;;;;;;5115430;28;20050;-73
2022/08/10 05:59:32;;;;;;;7.43;3.92;;;19.50;67.30;;;;;;5114206;28;20088;-74
2022/08/10 06:02:01;;;;;;;6.18;4.25;;;19.50;67.30;;;;;;5115229;28;20024;-73
2022/08/10 06:04:37;;;;;;;6.00;3.85;;;19.60;67.40;;;;;;5115109;28;20130;-73
2022/08/10 06:07:07;;;;;;;6.63;3.97;;;19.60;67.40;;;;;;5115310;28;20020;-73
2022/08/10 06:09:35;;;;;;;6.35;3.80;;;19.60;67.40;;;;;;5115198;28;20016;-73
2022/08/10 06:12:01;;;;;;;5.53;3.60;;;19.60;67.40;;;;;;5115153;28;20089;-73
2022/08/10 06:17:14;;;;;;;6.55;3.78;;;19.70;67.40;;;;;;5115295;28;20039;-73
2022/08/10 06:19:42;;;;;;;6.85;4.15;;;19.70;67.20;;;;;;5114974;28;20032;-73
2022/08/10 06:22:09;;;;;;;5.95;3.60;;;19.80;67.20;;;;;;5114871;28;20020;-73
2022/08/10 06:24:39;;;;;;;8.13;4.22;;;19.70;67.40;;;;;;5114877;28;20035;-72
2022/08/10 06:27:05;;;;;;;8.13;3.90;;;19.70;67.40;;;;;;5114892;28;20044;-73
2022/08/10 06:29:34;;;;;;;7.63;3.80;;;19.70;67.50;;;;;;5114727;28;20029;-72
2022/08/10 06:32:01;;;;;;;9.32;4.00;;;19.70;67.60;;;;;;5114708;28;20030;-72
2022/08/10 06:34:34;;;;;;;6.18;3.95;;;19.80;67.50;;;;;;5114654;28;20056;-72
2022/08/10 06:37:06;;;;;;;5.65;3.65;;;19.90;67.40;;;;;;5114813;28;20024;-72
2022/08/10 06:39:32;;;;;;;6.33;3.70;;;20.00;67.30;;;;;;5114589;28;20032;-73
2022/08/10 06:42:04;;;;;;;6.03;3.50;;;20.10;67.20;;;;;;5114445;28;20308;-73
2022/08/10 06:44:39;;;;;;;7.50;3.75;;;20.10;67.10;;;;;;5114550;28;20044;-72
2022/08/10 06:47:09;;;;;;;6.28;4.00;;;20.20;66.90;;;;;;5114543;28;20024;-73
2022/08/10 06:49:37;;;;;;;7.00;3.65;;;20.30;66.70;;;;;;5114674;28;20052;-72
2022/08/10 06:52:08;;;;;;;6.63;3.72;;;20.30;66.50;;;;;;5114394;28;20084;-73
2022/08/10 06:54:35;;;;;;;5.63;3.58;;;20.40;66.40;;;;;;5114449;28;20024;-73
2022/08/10 06:57:01;;;;;;;5.90;3.45;;;20.40;66.50;;;;;;5114330;28;20490;-73
2022/08/10 06:59:36;;;;;;;8.20;3.72;;;20.50;66.40;;;;;;5114220;28;20032;-72
2022/08/10 07:02:06;;;;;;;7.85;3.55;;;20.60;66.50;;;;;;5114312;28;20016;-73
2022/08/10 07:04:59;;;;;;;5.88;3.70;;;20.60;65.90;;;;;;5114122;28;20040;-73
2022/08/10 07:07:29;;;;;;;6.68;3.58;;;20.70;65.40;;;;;;5114201;28;20468;-73
2022/08/10 07:09:57;;;;;;;5.22;3.33;;;20.60;65.30;;;;;;5113880;28;20016;-73
2022/08/10 07:12:24;;;;;;;5.03;3.42;;;20.70;65.50;;;;;;5113988;28;20039;-72
2022/08/10 07:14:52;;;;;;;5.00;3.60;;;20.80;65.60;;;;;;5114007;28;20028;-72
2022/08/10 07:17:23;;;;;;;5.57;3.47;;;20.80;65.10;;;;;;5112906;28;20024;-73
2022/08/10 07:19:54;;;;;;;6.35;3.30;;;20.90;64.60;;;;;;5113992;28;20475;-73
2022/08/10 07:22:29;;;;;;;4.97;3.10;;;20.90;64.50;;;;;;5113859;28;20024;-73
2022/08/10 07:24:57;;;;;;;5.18;3.38;;;21.00;64.20;;;;;;5114044;28;20036;-73
2022/08/10 07:27:25;;;;;;;7.63;3.17;;;21.00;64.80;;;;;;5113813;28;20072;-72
2022/08/10 07:29:52;;;;;;;7.45;3.40;;;21.10;65.20;;;;;;5113677;28;20023;-73
2022/08/10 07:32:20;;;;;;;5.10;3.33;;;21.20;64.10;;;;;;5113706;28;20024;-72
2022/08/10 07:34:48;;;;;;;5.13;3.10;;;21.30;63.50;;;;;;5113687;28;20027;-72
2022/08/10 07:37:15;;;;;;;7.22;2.80;;;21.40;63.40;;;;;;5113659;28;20032;-73
2022/08/10 07:39:45;;;;;;;4.50;2.90;;;21.50;64.10;;;;;;5113668;28;20024;-73
2022/08/10 07:42:13;;;;;;;7.88;3.30;;;21.50;63.20;;;;;;5113590;28;20465;-73
2022/08/10 07:44:41;;;;;;;7.43;2.80;;;21.60;62.90;;;;;;5113598;28;20459;-73
2022/08/10 07:47:09;;;;;;;4.57;2.78;;;21.70;63.10;;;;;;5113607;28;20072;-72
2022/08/10 07:49:38;;;;;;;4.60;2.90;;;21.80;62.80;;;;;;5113540;28;20016;-73
2022/08/10 07:52:09;;;;;;;5.32;2.92;;;21.90;62.50;;;;;;5113548;28;20031;-73
2022/08/10 07:54:41;;;;;;;4.60;2.88;;;21.90;62.10;;;;;;5113485;28;20537;-73
2022/08/10 07:57:12;;;;;;;5.38;2.47;;;22.00;62.00;;;;;;5113500;28;20031;-72
2022/08/10 07:59:44;;;;;;;6.28;2.80;;;22.10;62.80;;;;;;5113679;28;20024;-73
2022/08/10 08:02:33;;;;;;;5.00;3.28;;;22.20;61.60;;;;;;5113448;28;20016;-72
2022/08/10 08:05:03;;;;;;;5.97;2.83;;;22.30;61.20;;;;;;5112081;28;20032;-72
2022/08/10 08:07:29;;;;;;;7.05;2.92;;;22.40;61.20;;;;;;5113374;28;20024;-72
2022/08/10 08:09:56;;;;;;;5.05;2.60;;;22.50;60.90;;;;;;5113302;28;20024;-72
2022/08/10 08:12:23;;;;;;;8.30;2.60;;;22.50;61.00;;;;;;5113315;28;20027;-72
2022/08/10 08:14:51;;;;;;;4.45;2.55;;;22.60;60.80;;;;;;5113276;28;20020;-72
2022/08/10 08:17:20;;;;;;;4.90;2.35;;;22.80;60.60;;;;;;5113275;28;20028;-72
2022/08/10 08:19:49;;;;;;;4.82;2.45;;;22.80;60.30;;;;;;5113277;28;20100;-72
2022/08/10 08:22:17;;;;;;;3.97;2.05;;;22.90;60.10;;;;;;5113547;28;20024;-72
2022/08/10 08:24:44;;;;;;;4.05;2.65;;;23.00;59.80;;;;;;5117248;28;20027;-72
2022/08/10 08:27:18;;;;;;;5.15;2.42;;;23.10;59.60;;;;;;5117186;28;20030;-72
2022/08/10 08:29:45;;;;;;;3.88;2.45;;;23.20;59.20;;;;;;5117169;28;20448;-72
2022/08/10 08:32:14;;;;;;;4.93;2.75;;;23.30;58.80;;;;;;5117126;28;20042;-72
2022/08/10 08:34:42;;;;;;;4.97;2.50;;;23.40;58.60;;;;;;5116997;28;20020;-72
2022/08/10 08:37:10;;;;;;;3.63;2.00;;;23.50;57.80;;;;;;5116992;28;20021;-72
2022/08/10 08:39:36;;;;;;;3.08;1.90;;;23.50;57.00;;;;;;5116996;28;20024;-72
2022/08/10 08:42:27;;;;;;;10.68;2.38;;;23.60;56.00;;;;;;5116779;28;20039;-72
2022/08/10 08:45:33;;;;;;;4.25;2.20;;;23.80;55.50;;;;;;5116986;28;20033;-72
2022/08/10 08:48:19;;;;;;;5.13;2.10;;;23.90;55.80;;;;;;5116801;28;20016;-72
2022/08/10 08:51:12;;;;;;;3.30;2.00;;;23.90;55.60;;;;;;5116913;28;20028;-72
2022/08/10 08:54:06;;;;;;;3.78;1.88;;;24.10;55.40;;;;;;5116637;28;20049;-72
2022/08/10 08:57:06;;;;;;;4.82;1.88;;;24.20;54.60;;;;;;5116800;28;20020;-72
2022/08/10 08:59:51;;;;;;;3.70;2.35;;;24.30;54.40;;;;;;5116748;28;20020;-72
2022/08/10 09:02:49;;;;;;;9.52;2.95;;;24.40;53.10;;;;;;5116420;28;20036;-72
2022/08/10 09:05:50;;;;;;;4.90;2.17;;;24.50;52.10;;;;;;5116387;28;20066;-72
2022/08/10 09:08:29;;;;;;;5.30;2.47;;;24.60;52.30;;;;;;5107979;28;20062;-72
2022/08/10 09:11:07;;;;;;;3.65;2.30;;;24.70;52.40;;;;;;5116533;28;20028;-72
2022/08/10 09:13:56;;;;;;;5.53;2.20;;;24.70;52.10;;;;;;5115346;28;20012;-72
2022/08/10 09:16:36;;;;;;;3.08;2.40;;;24.80;52.30;;;;;;5116309;28;20024;-72
2022/08/10 09:19:15;;;;;;;3.60;2.42;;;24.90;52.20;;;;;;5116226;28;20020;-71
2022/08/10 09:22:02;;;;;;;6.40;2.20;;;25.00;50.90;;;;;;5116109;28;20046;-72
2022/08/10 09:24:41;;;;;;;4.32;2.45;;;25.10;51.30;;;;;;5116140;28;20062;-71
2022/08/10 09:27:32;;;;;;;5.68;2.58;;;25.20;51.00;;;;;;5116069;28;20471;-72
2022/08/10 09:30:06;;;;;;;6.40;2.58;;;25.30;51.10;;;;;;5115946;28;20071;-71
2022/08/10 09:32:46;;;;;;;3.67;2.47;;;25.40;49.60;;;;;;5116082;28;20116;-71
2022/08/10 09:35:34;;;;;;;4.32;2.40;;;25.50;50.50;;;;;;5115609;28;20074;-72
2022/08/10 09:38:35;;;;;;;5.30;2.33;;;25.60;48.60;;;;;;5115885;28;20028;-72
2022/08/10 09:41:31;;;;;;;2.92;2.25;;;25.60;49.60;;;;;;5115826;28;20028;-72
2022/08/10 09:44:12;;;;;;;5.75;2.22;;;25.80;49.80;;;;;;5115897;28;20032;-72
2022/08/10 09:46:51;;;;;;;5.10;2.20;;;25.80;50.60;;;;;;5115849;28;20020;-72
2022/08/10 09:49:20;;;;;;;3.53;2.55;;;25.90;50.70;;;;;;5115688;28;20041;-72
2022/08/10 09:52:00;;;;;;;5.65;2.90;;;26.00;51.10;;;;;;5115578;28;20024;-72
2022/08/10 09:54:56;;;;;;;4.13;2.65;;;26.00;48.80;;;;;;5115699;28;20028;-72
2022/08/10 09:57:48;;;;;;;3.67;2.47;;;26.20;48.00;;;;;;5115701;28;20076;-72
2022/08/10 10:00:18;;;;;;;7.35;2.78;;;26.30;47.90;;;;;;5114437;28;20043;-72
2022/08/10 10:03:05;;;;;;;4.78;2.40;;;26.40;46.10;;;;;;5115304;28;20052;-72
2022/08/10 10:05:54;;;;;;;4.35;2.85;;;26.50;45.40;;;;;;5115112;28;20036;-72
2022/08/10 10:08:31;;;;;;;3.88;2.30;;;26.60;44.50;;;;;;5115309;28;20514;-72
2022/08/10 10:11:11;;;;;;;3.17;2.58;;;26.60;45.30;;;;;;5115281;28;20020;-71
2022/08/10 10:14:04;;;;;;;4.60;2.40;;;26.70;43.60;;;;;;5115359;28;20051;-71
2022/08/10 10:16:39;;;;;;;4.72;2.20;;;26.70;45.50;;;;;;5115260;28;20038;-71
2022/08/10 10:19:30;;;;;;;4.22;2.63;;;26.80;45.30;;;;;;5115033;28;20047;-71
2022/08/10 10:22:04;;;;;;;4.25;2.40;;;27.00;44.20;;;;;;5114871;28;20028;-71
2022/08/10 10:24:54;;;;;;;3.65;2.70;;;27.00;45.60;;;;;;5114944;28;20080;-71
2022/08/10 10:27:49;;;;;;;6.57;3.03;;;27.20;43.20;;;;;;5114951;28;20024;-71
2022/08/10 10:30:17;;;;;;;3.88;2.70;;;27.10;38.70;;;;;;5109906;28;20040;-71
2022/08/10 10:32:51;;;;;;;4.43;2.50;;;27.10;41.50;;;;;;5114754;28;20020;-71
2022/08/10 10:35:26;;;;;;;4.18;2.42;;;27.20;41.10;;;;;;5114732;28;20044;-71
2022/08/10 10:37:53;;;;;;;6.35;2.97;;;27.30;42.20;;;;;;5114846;28;20016;-71
2022/08/10 10:40:21;;;;;;;5.22;2.90;;;27.40;43.20;;;;;;5114639;28;20023;-71
2022/08/10 10:43:18;;;;;;;4.22;2.88;;;27.50;41.10;;;;;;5113474;28;20035;-71
2022/08/10 10:45:55;;;;;;;6.13;2.85;;;27.60;41.30;;;;;;5114015;28;20030;-71
2022/08/10 10:48:21;;;;;;;3.42;2.67;;;27.60;41.50;;;;;;5114511;28;20030;-71
2022/08/10 10:51:08;;;;;;;4.40;2.80;;;27.70;42.20;;;;;;5114441;28;20028;-71
2022/08/10 10:53:57;;;;;;;4.07;2.60;;;27.90;41.70;;;;;;5114533;28;20020;-71
2022/08/10 10:56:53;;;;;;;6.60;3.13;;;28.00;41.40;;;;;;5114396;28;20028;-71
2022/08/10 10:59:30;;;;;;;3.53;2.53;;;28.00;41.30;;;;;;5114273;28;20031;-71
2022/08/10 11:02:28;;;;;;;4.53;2.53;;;28.10;38.50;;;;;;5114365;28;20024;-71
2022/08/10 11:05:08;;;;;;;3.92;2.72;;;28.00;39.30;;;;;;5114113;28;20067;-71
2022/08/10 11:07:40;;;;;;;3.90;2.40;;;28.10;40.60;;;;;;5114112;28;20416;-71
2022/08/10 11:10:14;;;;;;;5.43;2.90;;;28.20;41.60;;;;;;5113220;28;20012;-71
2022/08/10 11:12:56;;;;;;;4.15;2.67;;;28.30;39.30;;;;;;5114096;28;20024;-71
2022/08/10 11:15:37;;;;;;;6.97;2.80;;;28.30;39.90;;;;;;5114100;28;20024;-71
2022/08/10 11:18:17;;;;;;;4.07;2.70;;;28.40;39.40;;;;;;5114060;28;20054;-72
2022/08/10 11:21:04;;;;;;;3.33;2.70;;;28.40;40.20;;;;;;5112979;28;20085;-72
2022/08/10 11:23:38;;;;;;;3.30;2.55;;;28.50;40.80;;;;;;5113782;28;20055;-72
2022/08/10 11:26:12;;;;;;;4.03;2.40;;;28.60;40.90;;;;;;5113922;28;20016;-71
2022/08/10 11:28:47;;;;;;;4.88;2.83;;;28.70;38.40;;;;;;5113726;28;20024;-72
2022/08/10 11:31:27;;;;;;;3.97;2.50;;;28.70;38.10;;;;;;5112818;28;20016;-71
2022/08/10 11:34:02;;;;;;;4.55;2.90;;;28.70;38.00;;;;;;5113942;28;20075;-71
2022/08/10 11:36:55;;;;;;;3.85;2.60;;;28.70;36.70;;;;;;5113767;28;20027;-71
2022/08/10 11:39:30;;;;;;;3.60;2.50;;;28.60;36.30;;;;;;5112783;28;20031;-71
2022/08/10 11:42:05;;;;;;;4.28;2.63;;;28.60;37.70;;;;;;5113643;28;20074;-71
2022/08/10 11:44:42;;;;;;;3.72;2.60;;;28.70;38.80;;;;;;5113634;28;20046;-71
2022/08/10 11:47:18;;;;;;;4.53;2.75;;;28.90;39.30;;;;;;5113630;28;20051;-71
2022/08/10 11:49:47;;;;;;;4.30;2.80;;;29.10;38.40;;;;;;5113533;28;20020;-71
2022/08/10 11:52:18;;;;;;;3.22;2.58;;;29.00;37.20;;;;;;5112511;28;20028;-71
2022/08/10 11:54:53;;;;;;;3.50;2.60;;;29.10;37.90;;;;;;5112527;28;20031;-71
2022/08/10 11:57:19;;;;;;;3.45;2.33;;;29.10;36.80;;;;;;5115848;28;20028;-71
2022/08/10 11:59:57;;;;;;;4.43;2.58;;;29.20;37.50;;;;;;5117752;28;20034;-71
2022/08/10 12:03:06;;;;;;;3.65;2.58;;;29.40;37.40;;;;;;5117792;28;20092;-70
2022/08/10 12:05:38;;;;;;;3.63;2.80;;;29.40;34.40;;;;;;5116236;28;20043;-71
2022/08/10 12:08:03;;;;;;;;;;;29.20;35.70;;;;;;5118033;28;20075;-71
2022/08/10 12:10:30;;;;;;;3.67;2.53;;;29.20;36.30;;;;;;5117548;28;19904;-71
2022/08/10 12:13:22;;;;;;;4.60;2.17;;;29.30;36.80;;;;;;5117481;28;20035;-71
2022/08/10 12:16:13;;;;;;;3.65;2.47;;;29.50;36.10;;;;;;5117619;28;20020;-71
2022/08/10 12:19:03;;;;;;;2.88;2.30;;;29.70;36.50;;;;;;5117411;28;20028;-71
2022/08/10 12:21:41;;;;;;;3.80;2.60;;;29.80;35.70;;;;;;5116327;28;20085;-71
2022/08/10 12:24:16;;;;;;;4.18;2.30;;;29.90;35.70;;;;;;5116299;28;20020;-71
2022/08/10 12:27:04;;;;;;;6.40;2.67;;;30.10;34.90;;;;;;5117272;28;20076;-71
2022/08/10 12:29:41;;;;;;;5.90;2.42;;;30.20;36.50;;;;;;5117076;28;20078;-71
2022/08/10 12:32:17;;;;;;;4.72;2.53;;;30.30;35.10;;;;;;5117297;28;20028;-71
2022/08/10 12:34:55;;;;;;;3.45;2.30;;;30.30;34.60;;;;;;5117277;28;20016;-71
2022/08/10 12:37:36;;;;;;;2.20;2.00;;;30.40;33.90;;;;;;5117224;28;20035;-71
2022/08/10 12:40:12;;;;;;;5.95;2.30;;;30.50;33.50;;;;;;5117121;28;20024;-71
2022/08/10 12:42:51;;;;;;;4.15;2.10;;;30.40;31.70;;;;;;5115918;28;20080;-71
2022/08/10 12:45:34;;;;;;;2.97;2.40;;;30.40;34.00;;;;;;5116948;28;20020;-71
2022/08/10 12:48:09;;;;;;;3.35;2.10;;;30.50;32.40;;;;;;5116811;28;20016;-71
2022/08/10 12:50:56;;;;;;;5.68;2.20;;;30.60;32.50;;;;;;5116892;28;20012;-71
2022/08/10 12:54:00;;;;;;;4.18;2.08;;;30.70;33.20;;;;;;5116786;28;20085;-71
2022/08/10 12:56:31;;;;;;;3.42;2.13;;;30.80;32.70;;;;;;5110181;28;20038;-71
2022/08/10 12:58:58;;;;;;;3.03;1.85;;;30.80;33.40;;;;;;5116846;28;20028;-71
2022/08/10 13:01:28;;;;;;;2.90;2.00;;;31.00;33.30;;;;;;5116525;28;20049;-71
2022/08/10 13:04:01;;;;;;;2.20;1.90;;;31.00;31.40;;;;;;5115265;28;20020;-71
2022/08/10 13:06:30;;;;;;;3.88;2.03;;;31.00;31.00;;;;;;5116543;28;20024;-70
2022/08/10 13:09:08;;;;;;;3.75;2.00;;;31.00;31.90;;;;;;5115724;28;20555;-70
2022/08/10 13:11:39;;;;;;;3.92;2.20;;;31.10;31.90;;;;;;5116465;28;20024;-70
2022/08/10 13:14:12;;;;;;;4.73;1.97;;;31.20;31.70;;;;;;5115388;28;20024;-70
2022/08/10 13:16:41;;;;;;;3.03;2.10;;;31.20;32.20;;;;;;5116321;28;20262;-70
2022/08/10 13:19:09;;;;;;;2.70;2.10;;;31.20;31.40;;;;;;5116281;28;20031;-70
2022/08/10 13:21:37;;;;;;;4.38;2.03;;;31.20;31.10;;;;;;5116143;28;20023;-70